sensor_id;sensor_type;location;lat;lon;timestamp;P1;durP1;ratioP1;P2;durP2;ratioP2
57301;SDS011;43149;50.974;18.224;2023-08-30T00:04:24;51.60;;;27.10;;
57301;SDS011;43149;50.974;18.224;2023-08-30T00:14:08;21.60;;;14.50;;
57301;SDS011;43149;50.974;18.224;2023-08-30T00:23:51;21.90;;;14.00;;
57301;SDS011;43149;50.974;18.224;2023-08-30T00:33:34;10.60;;;7.90;;
57301;SDS011;43149;50.974;18.224;2023-08-30T00:43:19;27.00;;;15.80;;
57301;SDS011;43149;50.974;18.224;2023-08-30T00:53:03;27.70;;;15.10;;
57301;SDS011;43149;50.974;18.224;2023-08-30T01:02:59;24.20;;;14.00;;
57301;SDS011;43149;50.974;18.224;2023-08-30T01:12:44;31.50;;;14.60;;
57301;SDS011;43149;50.974;18.224;2023-08-30T01:32:32;38.00;;;18.60;;
57301;SDS011;43149;50.974;18.224;2023-08-30T01:42:17;34.60;;;16.60;;
57301;SDS011;43149;50.974;18.224;2023-08-30T01:52:08;28.90;;;16.60;;
57301;SDS011;43149;50.974;18.224;2023-08-30T02:01:52;29.90;;;16.80;;
57301;SDS011;43149;50.974;18.224;2023-08-30T02:11:55;17.20;;;11.20;;
57301;SDS011;43149;50.974;18.224;2023-08-30T02:21:42;28.50;;;14.60;;
57301;SDS011;43149;50.974;18.224;2023-08-30T02:31:26;16.00;;;10.50;;
57301;SDS011;43149;50.974;18.224;2023-08-30T02:41:11;26.60;;;14.80;;
57301;SDS011;43149;50.974;18.224;2023-08-30T02:50:55;19.00;;;10.90;;
57301;SDS011;43149;50.974;18.224;2023-08-30T03:00:39;30.10;;;15.10;;
57301;SDS011;43149;50.974;18.224;2023-08-30T03:10:22;21.70;;;12.10;;
57301;SDS011;43149;50.974;18.224;2023-08-30T03:20:05;29.30;;;13.70;;
57301;SDS011;43149;50.974;18.224;2023-08-30T03:29:49;21.70;;;10.90;;
57301;SDS011;43149;50.974;18.224;2023-08-30T03:39:35;43.10;;;12.60;;
57301;SDS011;43149;50.974;18.224;2023-08-30T03:49:17;21.10;;;12.70;;
57301;SDS011;43149;50.974;18.224;2023-08-30T03:59:04;21.80;;;11.30;;
57301;SDS011;43149;50.974;18.224;2023-08-30T04:08:48;20.00;;;11.90;;
57301;SDS011;43149;50.974;18.224;2023-08-30T04:18:31;12.00;;;3.20;;
57301;SDS011;43149;50.974;18.224;2023-08-30T04:28:15;15.70;;;10.40;;
57301;SDS011;43149;50.974;18.224;2023-08-30T04:37:59;23.00;;;11.90;;
57301;SDS011;43149;50.974;18.224;2023-08-30T04:47:43;17.50;;;9.90;;
57301;SDS011;43149;50.974;18.224;2023-08-30T04:57:28;25.90;;;9.60;;
57301;SDS011;43149;50.974;18.224;2023-08-30T05:07:12;7.70;;;3.90;;
57301;SDS011;43149;50.974;18.224;2023-08-30T05:16:58;1.40;;;1.30;;
57301;SDS011;43149;50.974;18.224;2023-08-30T05:26:45;9.30;;;5.60;;
57301;SDS011;43149;50.974;18.224;2023-08-30T05:36:30;4.00;;;3.20;;
57301;SDS011;43149;50.974;18.224;2023-08-30T05:46:12;4.70;;;4.20;;
57301;SDS011;43149;50.974;18.224;2023-08-30T06:03:14;7.80;;;6.10;;
57301;SDS011;43149;50.974;18.224;2023-08-30T06:12:59;5.40;;;4.40;;
57301;SDS011;43149;50.974;18.224;2023-08-30T06:22:42;3.30;;;3.00;;
57301;SDS011;43149;50.974;18.224;2023-08-30T06:32:33;5.80;;;5.30;;
57301;SDS011;43149;50.974;18.224;2023-08-30T06:42:16;3.50;;;3.30;;
57301;SDS011;43149;50.974;18.224;2023-08-30T06:52:00;6.40;;;5.60;;
57301;SDS011;43149;50.974;18.224;2023-08-30T07:01:51;4.40;;;4.10;;
57301;SDS011;43149;50.974;18.224;2023-08-30T07:06:43;9.90;;;8.20;;
57301;SDS011;43149;50.974;18.224;2023-08-30T07:16:29;6.40;;;5.80;;
57301;SDS011;43149;50.974;18.224;2023-08-30T07:26:13;9.40;;;7.00;;
57301;SDS011;43149;50.974;18.224;2023-08-30T07:35:56;14.10;;;8.00;;
57301;SDS011;43149;50.974;18.224;2023-08-30T07:45:39;8.50;;;7.60;;
57301;SDS011;43149;50.974;18.224;2023-08-30T07:55:22;7.10;;;6.50;;
57301;SDS011;43149;50.974;18.224;2023-08-30T08:05:06;8.00;;;4.70;;
57301;SDS011;43149;50.974;18.224;2023-08-30T08:14:51;9.40;;;6.20;;
57301;SDS011;43149;50.974;18.224;2023-08-30T08:24:35;4.60;;;4.30;;
57301;SDS011;43149;50.974;18.224;2023-08-30T08:34:19;11.80;;;7.50;;
57301;SDS011;43149;50.974;18.224;2023-08-30T08:44:09;3.20;;;3.00;;
57301;SDS011;43149;50.974;18.224;2023-08-30T08:54:11;5.40;;;5.00;;
57301;SDS011;43149;50.974;18.224;2023-08-30T09:03:59;6.70;;;6.10;;
57301;SDS011;43149;50.974;18.224;2023-08-30T09:13:42;4.20;;;3.20;;
57301;SDS011;43149;50.974;18.224;2023-08-30T09:23:34;8.00;;;4.40;;
57301;SDS011;43149;50.974;18.224;2023-08-30T09:33:22;3.90;;;2.50;;
57301;SDS011;43149;50.974;18.224;2023-08-30T09:43:10;4.40;;;3.90;;
57301;SDS011;43149;50.974;18.224;2023-08-30T09:53:03;5.60;;;5.10;;
57301;SDS011;43149;50.974;18.224;2023-08-30T10:02:50;7.40;;;4.90;;
57301;SDS011;43149;50.974;18.224;2023-08-30T10:12:34;5.80;;;5.30;;
57301;SDS011;43149;50.974;18.224;2023-08-30T10:22:22;4.10;;;3.60;;
57301;SDS011;43149;50.974;18.224;2023-08-30T10:32:09;4.00;;;3.70;;
57301;SDS011;43149;50.974;18.224;2023-08-30T10:42:06;8.20;;;4.00;;
57301;SDS011;43149;50.974;18.224;2023-08-30T10:51:55;3.60;;;3.30;;
57301;SDS011;43149;50.974;18.224;2023-08-30T11:01:54;3.30;;;3.10;;
57301;SDS011;43149;50.974;18.224;2023-08-30T11:11:46;3.50;;;3.20;;
57301;SDS011;43149;50.974;18.224;2023-08-30T11:21:30;2.30;;;2.20;;
57301;SDS011;43149;50.974;18.224;2023-08-30T11:31:21;2.40;;;2.20;;
57301;SDS011;43149;50.974;18.224;2023-08-30T11:41:16;3.90;;;2.80;;
57301;SDS011;43149;50.974;18.224;2023-08-30T11:51:04;1.40;;;1.30;;
57301;SDS011;43149;50.974;18.224;2023-08-30T12:00:49;2.00;;;1.30;;
57301;SDS011;43149;50.974;18.224;2023-08-30T12:10:50;1.40;;;1.30;;
57301;SDS011;43149;50.974;18.224;2023-08-30T12:20:58;0.90;;;0.90;;
57301;SDS011;43149;50.974;18.224;2023-08-30T12:30:51;0.30;;;0.30;;
57301;SDS011;43149;50.974;18.224;2023-08-30T12:40:35;0.90;;;0.90;;
57301;SDS011;43149;50.974;18.224;2023-08-30T12:50:18;2.40;;;2.30;;
57301;SDS011;43149;50.974;18.224;2023-08-30T13:00:03;0.60;;;0.60;;
57301;SDS011;43149;50.974;18.224;2023-08-30T13:09:46;1.10;;;1.00;;
57301;SDS011;43149;50.974;18.224;2023-08-30T13:19:29;2.40;;;2.30;;
57301;SDS011;43149;50.974;18.224;2023-08-30T13:29:12;2.10;;;2.00;;
57301;SDS011;43149;50.974;18.224;2023-08-30T13:38:55;1.70;;;1.60;;
57301;SDS011;43149;50.974;18.224;2023-08-30T13:48:38;1.50;;;1.40;;
57301;SDS011;43149;50.974;18.224;2023-08-30T13:58:21;3.10;;;2.80;;
57301;SDS011;43149;50.974;18.224;2023-08-30T14:08:07;3.70;;;3.50;;
57301;SDS011;43149;50.974;18.224;2023-08-30T14:17:50;3.10;;;2.80;;
57301;SDS011;43149;50.974;18.224;2023-08-30T14:27:35;3.30;;;3.10;;
57301;SDS011;43149;50.974;18.224;2023-08-30T14:37:18;3.30;;;3.00;;
57301;SDS011;43149;50.974;18.224;2023-08-30T14:47:02;1.40;;;1.30;;
57301;SDS011;43149;50.974;18.224;2023-08-30T14:56:48;2.30;;;2.10;;
57301;SDS011;43149;50.974;18.224;2023-08-30T15:06:30;1.20;;;0.90;;
57301;SDS011;43149;50.974;18.224;2023-08-30T15:16:14;1.60;;;1.50;;
57301;SDS011;43149;50.974;18.224;2023-08-30T15:25:58;1.80;;;1.70;;
57301;SDS011;43149;50.974;18.224;2023-08-30T15:35:42;7.10;;;4.70;;
57301;SDS011;43149;50.974;18.224;2023-08-30T15:45:28;3.10;;;2.90;;
57301;SDS011;43149;50.974;18.224;2023-08-30T15:55:13;2.00;;;1.90;;
57301;SDS011;43149;50.974;18.224;2023-08-30T16:04:58;2.10;;;2.00;;
57301;SDS011;43149;50.974;18.224;2023-08-30T16:14:42;2.10;;;2.00;;
57301;SDS011;43149;50.974;18.224;2023-08-30T16:24:28;0.30;;;0.30;;
57301;SDS011;43149;50.974;18.224;2023-08-30T16:34:20;3.20;;;2.90;;
57301;SDS011;43149;50.974;18.224;2023-08-30T16:44:07;1.70;;;1.60;;
57301;SDS011;43149;50.974;18.224;2023-08-30T16:53:55;3.20;;;2.10;;
57301;SDS011;43149;50.974;18.224;2023-08-30T17:03:37;17.00;;;1.90;;
57301;SDS011;43149;50.974;18.224;2023-08-30T17:13:31;0.90;;;0.90;;
57301;SDS011;43149;50.974;18.224;2023-08-30T17:23:17;2.30;;;1.00;;
57301;SDS011;43149;50.974;18.224;2023-08-30T17:33:01;2.40;;;1.70;;
57301;SDS011;43149;50.974;18.224;2023-08-30T17:42:46;9.80;;;8.10;;
57301;SDS011;43149;50.974;18.224;2023-08-30T17:52:30;6.90;;;5.70;;
57301;SDS011;43149;50.974;18.224;2023-08-30T18:02:13;6.30;;;4.60;;
57301;SDS011;43149;50.974;18.224;2023-08-30T18:11:57;3.40;;;3.10;;
57301;SDS011;43149;50.974;18.224;2023-08-30T18:21:40;3.90;;;3.30;;
57301;SDS011;43149;50.974;18.224;2023-08-30T18:31:31;21.90;;;5.00;;
57301;SDS011;43149;50.974;18.224;2023-08-30T18:41:15;6.10;;;4.30;;
57301;SDS011;43149;50.974;18.224;2023-08-30T18:51:06;4.00;;;3.00;;
57301;SDS011;43149;50.974;18.224;2023-08-30T18:55:58;8.80;;;5.70;;
57301;SDS011;43149;50.974;18.224;2023-08-30T19:05:41;6.80;;;3.40;;
57301;SDS011;43149;50.974;18.224;2023-08-30T19:15:26;17.30;;;4.00;;
57301;SDS011;43149;50.974;18.224;2023-08-30T19:25:08;3.70;;;2.40;;
57301;SDS011;43149;50.974;18.224;2023-08-30T19:35:03;13.40;;;2.20;;
57301;SDS011;43149;50.974;18.224;2023-08-30T19:44:51;2.10;;;1.70;;
57301;SDS011;43149;50.974;18.224;2023-08-30T19:54:50;0.90;;;0.90;;
57301;SDS011;43149;50.974;18.224;2023-08-30T20:04:36;3.70;;;2.10;;
57301;SDS011;43149;50.974;18.224;2023-08-30T20:14:21;1.30;;;1.20;;
57301;SDS011;43149;50.974;18.224;2023-08-30T20:24:12;2.70;;;1.30;;
57301;SDS011;43149;50.974;18.224;2023-08-30T20:33:58;2.10;;;2.00;;
57301;SDS011;43149;50.974;18.224;2023-08-30T20:43:43;7.00;;;3.70;;
57301;SDS011;43149;50.974;18.224;2023-08-30T20:53:38;2.60;;;2.30;;
57301;SDS011;43149;50.974;18.224;2023-08-30T21:03:31;6.30;;;2.50;;
57301;SDS011;43149;50.974;18.224;2023-08-30T21:13:14;2.00;;;1.70;;
57301;SDS011;43149;50.974;18.224;2023-08-30T21:20:31;10.00;;;5.00;;
57301;SDS011;43149;50.974;18.224;2023-08-30T21:30:21;12.90;;;2.90;;
57301;SDS011;43149;50.974;18.224;2023-08-30T21:40:06;2.60;;;1.90;;
57301;SDS011;43149;50.974;18.224;2023-08-30T21:49:51;10.40;;;2.80;;
57301;SDS011;43149;50.974;18.224;2023-08-30T21:59:35;2.80;;;2.10;;
57301;SDS011;43149;50.974;18.224;2023-08-30T22:09:18;3.30;;;3.10;;
57301;SDS011;43149;50.974;18.224;2023-08-30T22:19:04;4.10;;;3.40;;
57301;SDS011;43149;50.974;18.224;2023-08-30T22:28:51;3.60;;;2.90;;
57301;SDS011;43149;50.974;18.224;2023-08-30T22:38:35;3.00;;;2.70;;
57301;SDS011;43149;50.974;18.224;2023-08-30T22:48:18;3.40;;;3.10;;
57301;SDS011;43149;50.974;18.224;2023-08-30T22:58:01;6.10;;;4.00;;
57301;SDS011;43149;50.974;18.224;2023-08-30T23:07:46;3.30;;;1.70;;
57301;SDS011;43149;50.974;18.224;2023-08-30T23:17:43;4.60;;;4.20;;
57301;SDS011;43149;50.974;18.224;2023-08-30T23:27:31;5.30;;;4.80;;
57301;SDS011;43149;50.974;18.224;2023-08-30T23:37:13;3.70;;;3.40;;
57301;SDS011;43149;50.974;18.224;2023-08-30T23:46:58;4.00;;;3.70;;
57301;SDS011;43149;50.974;18.224;2023-08-30T23:56:42;3.40;;;3.10;;
